Time;durP1;ratioP1;P1;durP2;ratioP2;P2;SDS_P1;SDS_P2;PMS_P1;PMS_P2;Temp;Humidity;BMP_temperature;BMP_pressure;BME280_temperature;BME280_humidity;BME280_pressure;Samples;Min_cycle;Max_cycle;Signal;HPM_P1;HPM_P2
2022/09/16 00:00:58;;;;;;;1.80;1.00;;;20.00;54.00;;;;;;5016624;28;20185;-73
2022/09/16 00:03:25;;;;;;;1.00;0.90;;;20.10;54.20;;;;;;5031813;28;20637;-76
2022/09/16 00:05:53;;;;;;;1.20;0.90;;;20.20;54.60;;;;;;5022769;28;20240;-75
2022/09/16 00:08:22;;;;;;;1.00;0.90;;;20.30;54.60;;;;;;5030360;28;20211;-75
2022/09/16 00:10:49;;;;;;;1.30;0.93;;;20.30;53.20;;;;;;5032484;28;20195;-77
2022/09/16 00:13:17;;;;;;;1.43;1.00;;;20.30;52.50;;;;;;5032999;28;20172;-79
2022/09/16 00:15:52;;;;;;;2.20;0.90;;;20.30;53.00;;;;;;5032294;28;20188;-75
2022/09/16 00:18:20;;;;;;;1.50;0.93;;;20.30;52.70;;;;;;5032559;28;20176;-76
2022/09/16 00:20:49;;;;;;;1.50;1.13;;;20.30;52.30;;;;;;5031529;28;20255;-73
2022/09/16 00:23:18;;;;;;;2.53;0.97;;;20.50;54.10;;;;;;5030400;28;20219;-75
2022/09/16 00:25:55;;;;;;;1.10;1.00;;;20.70;53.20;;;;;;5031931;28;20552;-78
2022/09/16 00:28:22;;;;;;;4.50;1.40;;;20.80;52.90;;;;;;5029371;28;20181;-79
2022/09/16 00:30:50;;;;;;;1.40;0.97;;;20.80;51.30;;;;;;5024002;28;20275;-75
2022/09/16 00:33:19;;;;;;;1.53;0.90;;;20.70;51.90;;;;;;5025877;28;20188;-76
2022/09/16 00:35:47;;;;;;;1.30;0.93;;;20.60;51.80;;;;;;5030669;28;20650;-73
2022/09/16 00:38:14;;;;;;;3.40;0.80;;;20.70;51.40;;;;;;5031590;28;20242;-75
2022/09/16 00:40:48;;;;;;;1.60;0.90;;;20.80;52.50;;;;;;5028745;28;20202;-75
2022/09/16 00:43:19;;;;;;;2.00;1.17;;;20.80;49.70;;;;;;5032369;28;20531;-74
2022/09/16 00:46:02;;;;;;;2.73;1.10;;;21.10;49.60;;;;;;5024010;28;20259;-75
2022/09/16 00:48:32;;;;;;;1.53;0.80;;;21.00;50.80;;;;;;5025688;28;20177;-77
2022/09/16 00:51:06;;;;;;;1.97;0.80;;;21.10;49.50;;;;;;5034386;28;20235;-75
2022/09/16 00:53:56;;;;;;;5.10;1.00;;;21.10;49.40;;;;;;5034545;28;20268;-77
2022/09/16 00:56:26;;;;;;;1.87;1.13;;;21.30;48.70;;;;;;5032289;28;20227;-79
2022/09/16 00:59:05;;;;;;;4.13;1.10;;;21.30;47.80;;;;;;5034733;28;20176;-74
2022/09/16 01:01:32;;;;;;;1.80;1.00;;;21.40;49.90;;;;;;5032600;28;20184;-76
2022/09/16 01:04:26;;;;;;;2.27;1.07;;;21.70;48.10;;;;;;5043382;28;20227;-74
2022/09/16 01:06:54;;;;;;;1.00;0.80;;;21.60;47.70;;;;;;4995989;28;20236;-72
2022/09/16 01:09:24;;;;;;;3.30;1.10;;;21.70;49.20;;;;;;5019764;28;20234;-82
2022/09/16 01:11:52;;;;;;;1.07;0.70;;;21.70;46.60;;;;;;5031168;28;20185;-75
2022/09/16 01:17:31;;;;;;;1.03;0.73;;;21.60;47.90;;;;;;5035411;28;20543;-77
2022/09/16 01:20:04;;;;;;;2.20;0.90;;;21.90;46.90;;;;;;5031072;28;20260;-75
2022/09/16 01:23:05;;;;;;;3.73;0.70;;;22.20;46.60;;;;;;5038366;28;20192;-76
2022/09/16 01:26:01;;;;;;;1.93;1.03;;;22.40;45.30;;;;;;5035527;28;20200;-73
2022/09/16 01:29:07;;;;;;;3.20;1.10;;;22.40;46.50;;;;;;5035457;28;20164;-77
2022/09/16 01:31:39;;;;;;;3.70;1.10;;;22.20;45.60;;;;;;5032314;28;20279;-73
2022/09/16 01:34:12;;;;;;;1.83;1.07;;;22.40;45.90;;;;;;5035375;28;20230;-74
2022/09/16 01:37:09;;;;;;;1.83;0.90;;;22.50;43.60;;;;;;5032938;28;20536;-75
2022/09/16 01:40:06;;;;;;;1.47;0.90;;;22.50;43.10;;;;;;5019654;28;20188;-76
2022/09/16 01:42:45;;;;;;;3.27;0.70;;;22.60;43.20;;;;;;5032160;28;20181;-73
2022/09/16 01:45:43;;;;;;;2.13;1.30;;;22.80;43.90;;;;;;5025039;28;20188;-74
2022/09/16 01:48:14;;;;;;;2.47;1.00;;;23.20;43.60;;;;;;5033400;28;20183;-74
2022/09/16 01:50:52;;;;;;;2.33;0.93;;;23.30;43.80;;;;;;5040004;28;20201;-74
2022/09/16 01:53:41;;;;;;;2.47;0.90;;;23.30;41.20;;;;;;5033620;28;20511;-79
2022/09/16 01:56:29;;;;;;;1.80;0.87;;;23.30;41.80;;;;;;5035004;28;20216;-76
2022/09/16 01:58:59;;;;;;;2.33;1.00;;;23.50;42.30;;;;;;5034755;28;20642;-77
2022/09/16 02:01:45;;;;;;;3.37;1.03;;;23.30;42.00;;;;;;5033632;28;20185;-72
2022/09/16 02:04:29;;;;;;;2.20;0.90;;;23.40;41.30;;;;;;5034118;28;20231;-72
2022/09/16 02:06:58;;;;;;;2.30;1.20;;;23.60;40.60;;;;;;5031809;28;20259;-74
2022/09/16 02:09:42;;;;;;;1.30;0.90;;;23.80;41.40;;;;;;5032642;28;20268;-74
2022/09/16 02:12:15;;;;;;;2.87;1.63;;;23.70;41.40;;;;;;5034020;28;20180;-73
2022/09/16 02:14:45;;;;;;;1.13;0.80;;;23.30;42.30;;;;;;5028441;28;20181;-80
2022/09/16 02:17:21;;;;;;;2.50;1.00;;;22.80;43.20;;;;;;5029718;28;20264;-73
2022/09/16 02:20:07;;;;;;;3.20;1.10;;;22.80;43.80;;;;;;5033413;28;20184;-72
2022/09/16 02:22:39;;;;;;;1.57;1.00;;;23.10;43.30;;;;;;5028085;28;20612;-75
2022/09/16 02:25:09;;;;;;;4.73;1.33;;;23.00;43.30;;;;;;5030476;28;20184;-72
2022/09/16 02:27:39;;;;;;;2.67;0.90;;;23.50;42.30;;;;;;5033545;28;20188;-74
2022/09/16 02:30:10;;;;;;;1.23;0.80;;;24.30;40.10;;;;;;5030536;28;20283;-76
2022/09/16 02:32:42;;;;;;;1.93;0.90;;;24.10;38.00;;;;;;5033236;28;20176;-75
2022/09/16 02:35:15;;;;;;;0.97;0.80;;;23.80;39.30;;;;;;5031246;28;20678;-79
2022/09/16 02:37:51;;;;;;;3.20;1.10;;;24.30;35.70;;;;;;5032763;28;20189;-73
2022/09/16 02:40:37;;;;;;;2.60;0.90;;;24.80;36.50;;;;;;5032614;28;20642;-73
2022/09/16 02:43:05;;;;;;;1.07;0.80;;;24.30;37.30;;;;;;5033417;28;20188;-73
2022/09/16 02:46:03;;;;;;;2.87;0.93;;;23.40;38.60;;;;;;5032929;28;20599;-74
2022/09/16 02:48:41;;;;;;;1.57;0.93;;;23.00;39.10;;;;;;5028722;28;20177;-75
2022/09/16 02:51:17;;;;;;;1.67;1.10;;;22.60;39.10;;;;;;5031733;28;20180;-75
2022/09/16 02:54:04;;;;;;;1.47;0.80;;;23.20;37.70;;;;;;5012851;28;20169;-77
2022/09/16 02:56:37;;;;;;;3.17;1.60;;;23.60;38.10;;;;;;5024890;28;20181;-75
2022/09/16 02:59:07;;;;;;;3.80;0.77;;;24.10;35.10;;;;;;5032415;28;20179;-78
2022/09/16 03:01:42;;;;;;;2.40;0.80;;;24.30;28.40;;;;;;5033303;28;20666;-74
2022/09/16 03:04:15;;;;;;;2.37;0.73;;;24.50;28.50;;;;;;5028212;28;20204;-75
2022/09/16 03:06:43;;;;;;;2.97;0.73;;;24.90;27.80;;;;;;5027226;28;20358;-75
2022/09/16 03:09:12;;;;;;;2.23;0.70;;;25.00;27.10;;;;;;5030734;28;20239;-73
2022/09/16 03:12:24;;;;;;;2.67;1.10;;;25.10;27.20;;;;;;5026023;28;20638;-75
2022/09/16 03:15:03;;;;;;;1.83;0.87;;;25.50;27.50;;;;;;5015692;28;20204;-73
2022/09/16 03:17:45;;;;;;;1.53;0.70;;;25.80;27.50;;;;;;5028890;28;20267;-76
2022/09/16 03:20:41;;;;;;;2.40;0.70;;;26.30;27.30;;;;;;5027946;28;20227;-76
2022/09/16 03:23:27;;;;;;;0.70;0.60;;;26.40;26.00;;;;;;5031703;28;20188;-75
2022/09/16 03:26:06;;;;;;;3.97;0.80;;;25.90;25.90;;;;;;5032470;28;20184;-75
2022/09/16 03:28:38;;;;;;;3.50;0.80;;;26.20;26.90;;;;;;5031592;28;20195;-73
2022/09/16 03:31:18;;;;;;;1.83;0.60;;;26.70;25.00;;;;;;5031395;28;20192;-72
2022/09/16 03:34:07;;;;;;;2.20;0.90;;;26.10;24.40;;;;;;5019253;28;20204;-76
2022/09/16 03:36:41;;;;;;;2.97;0.67;;;26.00;25.20;;;;;;5032012;28;20181;-76
2022/09/16 03:39:11;;;;;;;1.97;0.60;;;26.10;25.20;;;;;;5032575;28;20736;-74
2022/09/16 03:41:39;;;;;;;3.50;0.70;;;26.10;25.20;;;;;;5032589;28;20169;-76
2022/09/16 03:44:06;;;;;;;3.67;0.80;;;26.10;25.00;;;;;;5032629;28;20177;-76
2022/09/16 03:46:34;;;;;;;2.47;0.70;;;25.80;25.70;;;;;;5032255;28;20270;-77
2022/09/16 03:49:01;;;;;;;3.83;0.77;;;25.80;25.40;;;;;;5032355;28;20595;-76
2022/09/16 03:51:28;;;;;;;1.60;0.63;;;26.50;25.00;;;;;;5032423;28;20266;-76
2022/09/16 03:53:56;;;;;;;1.90;0.73;;;27.20;25.30;;;;;;5032705;28;20172;-74
2022/09/16 03:56:24;;;;;;;2.10;0.70;;;27.30;24.60;;;;;;5032689;28;20663;-79
2022/09/16 03:58:51;;;;;;;2.07;0.57;;;26.90;24.20;;;;;;5032427;28;20550;-76
2022/09/16 04:01:20;;;;;;;0.90;0.50;;;26.80;25.40;;;;;;5032720;28;20189;-76
2022/09/16 04:03:47;;;;;;;2.13;0.70;;;27.00;24.50;;;;;;5032532;28;20192;-74
2022/09/16 04:06:14;;;;;;;1.90;0.70;;;27.00;24.60;;;;;;5031942;28;20350;-73
2022/09/16 04:08:43;;;;;;;2.70;0.70;;;26.80;24.30;;;;;;5031688;28;20219;-74
2022/09/16 04:11:16;;;;;;;3.63;0.80;;;26.50;25.40;;;;;;5032617;28;20259;-75
2022/09/16 04:13:43;;;;;;;3.90;0.77;;;26.70;25.60;;;;;;5032472;28;20172;-75
2022/09/16 04:16:11;;;;;;;1.53;0.73;;;27.00;24.70;;;;;;5044976;28;20211;-74
2022/09/16 04:18:38;;;;;;;4.47;0.87;;;27.40;24.70;;;;;;5050078;28;20259;-77
2022/09/16 04:21:05;;;;;;;2.97;0.80;;;28.10;24.40;;;;;;5032368;28;20188;-76
2022/09/16 04:23:33;;;;;;;1.57;0.60;;;27.70;23.50;;;;;;5032309;28;20670;-77
2022/09/16 04:26:02;;;;;;;1.80;0.60;;;27.70;23.40;;;;;;5032392;28;20172;-75
2022/09/16 04:28:31;;;;;;;1.17;0.63;;;27.70;23.90;;;;;;5031305;28;20607;-75
2022/09/16 04:31:03;;;;;;;3.40;0.67;;;27.80;24.30;;;;;;5031710;28;20263;-75
2022/09/16 04:33:32;;;;;;;1.57;0.70;;;27.00;24.40;;;;;;5032388;28;20173;-72
2022/09/16 04:36:18;;;;;;;2.53;0.77;;;27.30;24.00;;;;;;5031697;28;20651;-78
2022/09/16 04:38:47;;;;;;;2.73;0.80;;;27.70;23.00;;;;;;5031949;28;20180;-73
2022/09/16 04:41:18;;;;;;;3.57;0.60;;;27.40;23.40;;;;;;5031998;28;20216;-73
2022/09/16 04:43:46;;;;;;;1.83;0.80;;;26.60;25.10;;;;;;5031694;28;20176;-72
2022/09/16 04:46:13;;;;;;;3.50;0.90;;;26.70;24.80;;;;;;5031674;28;20258;-77
2022/09/16 04:48:41;;;;;;;2.30;0.97;;;27.10;23.90;;;;;;5029849;28;20204;-76
2022/09/16 04:51:11;;;;;;;2.03;0.80;;;28.20;22.80;;;;;;5031313;28;20173;-75
2022/09/16 04:53:40;;;;;;;3.13;0.80;;;28.90;22.40;;;;;;5027276;28;20186;-73
2022/09/16 04:56:14;;;;;;;2.90;0.90;;;29.30;21.60;;;;;;5030497;28;20177;-76
2022/09/16 04:58:53;;;;;;;4.40;0.97;;;28.80;22.40;;;;;;5030848;28;20659;-75
2022/09/16 05:01:26;;;;;;;2.93;0.77;;;28.40;22.50;;;;;;5030274;28;20310;-76
2022/09/16 05:03:55;;;;;;;2.97;0.87;;;28.50;23.00;;;;;;5029790;28;20516;-74
2022/09/16 05:06:25;;;;;;;2.40;0.80;;;29.20;22.90;;;;;;5030919;28;20300;-73
2022/09/16 05:08:54;;;;;;;6.90;1.43;;;28.10;23.90;;;;;;5031021;28;20199;-77
2022/09/16 05:11:24;;;;;;;3.47;1.10;;;28.60;23.40;;;;;;5031030;28;20670;-77
2022/09/16 05:13:52;;;;;;;2.20;0.70;;;28.30;23.40;;;;;;5030848;28;20177;-74
2022/09/16 05:16:21;;;;;;;2.17;0.97;;;28.20;23.80;;;;;;5031923;28;20180;-74
2022/09/16 05:18:50;;;;;;;2.63;1.10;;;28.70;22.60;;;;;;5028960;28;20554;-76
2022/09/16 05:21:20;;;;;;;2.90;0.80;;;28.30;23.10;;;;;;5030579;28;20642;-74
2022/09/16 05:23:48;;;;;;;4.37;0.80;;;28.60;22.90;;;;;;5032123;28;20181;-76
2022/09/16 05:26:24;;;;;;;7.60;1.00;;;28.40;23.50;;;;;;5031597;28;20271;-75
2022/09/16 05:28:52;;;;;;;1.90;0.70;;;28.40;24.40;;;;;;5033920;28;20211;-75
2022/09/16 05:31:32;;;;;;;2.20;1.10;;;27.80;24.20;;;;;;5035547;28;20173;-75
2022/09/16 05:34:04;;;;;;;1.90;0.80;;;26.10;27.00;;;;;;5033998;28;20184;-76
2022/09/16 05:36:34;;;;;;;2.83;0.90;;;27.40;25.80;;;;;;5034677;28;20564;-74
2022/09/16 05:39:02;;;;;;;4.70;1.30;;;28.80;24.70;;;;;;5024006;28;20182;-74
2022/09/16 05:41:30;;;;;;;4.87;1.00;;;29.30;24.00;;;;;;5014902;28;20169;-75
2022/09/16 05:44:01;;;;;;;4.20;1.23;;;27.90;24.90;;;;;;5033341;28;20172;-74
2022/09/16 05:46:29;;;;;;;3.20;0.87;;;28.20;24.80;;;;;;5033943;28;20181;-75
2022/09/16 05:48:56;;;;;;;2.70;1.03;;;28.70;23.80;;;;;;5029277;28;20597;-74
2022/09/16 05:51:25;;;;;;;3.73;0.80;;;28.60;23.60;;;;;;5033053;28;20173;-76
2022/09/16 05:53:57;;;;;;;5.53;0.70;;;26.60;25.60;;;;;;5033246;28;20239;-76
2022/09/16 05:56:28;;;;;;;1.43;0.80;;;25.80;26.90;;;;;;5035072;28;20185;-75
2022/09/16 05:59:00;;;;;;;3.70;1.13;;;26.30;26.40;;;;;;5039227;28;20183;-77
2022/09/16 06:01:34;;;;;;;2.97;0.93;;;26.90;25.20;;;;;;5051751;28;20513;-73
2022/09/16 06:04:04;;;;;;;3.10;0.97;;;26.70;25.40;;;;;;5032504;28;20188;-77
2022/09/16 06:06:37;;;;;;;2.70;1.03;;;26.80;24.90;;;;;;5033820;28;20282;-76
2022/09/16 06:09:14;;;;;;;6.20;1.10;;;27.00;24.20;;;;;;5032697;28;20205;-79
2022/09/16 06:11:44;;;;;;;2.47;0.83;;;26.90;24.30;;;;;;5033481;28;20196;-73
2022/09/16 06:14:13;;;;;;;1.67;0.73;;;26.80;24.30;;;;;;5040601;28;20215;-76
2022/09/16 06:16:43;;;;;;;6.13;1.00;;;26.70;24.80;;;;;;5054010;28;20535;-76
2022/09/16 06:19:16;;;;;;;2.63;0.70;;;26.60;25.40;;;;;;5034675;28;20184;-78
2022/09/16 06:21:44;;;;;;;2.53;1.00;;;25.40;26.70;;;;;;5031861;28;20211;-79
2022/09/16 06:24:13;;;;;;;2.77;0.97;;;25.50;26.20;;;;;;5034655;28;20190;-75
2022/09/16 06:26:42;;;;;;;3.07;1.10;;;26.20;25.20;;;;;;5034250;28;20674;-76
2022/09/16 06:29:10;;;;;;;2.60;0.93;;;26.30;25.00;;;;;;5033705;28;20286;-77
2022/09/16 06:31:39;;;;;;;2.07;0.90;;;26.50;24.40;;;;;;5033757;28;20181;-75
2022/09/16 06:34:08;;;;;;;2.37;0.80;;;26.40;24.20;;;;;;5033565;28;20238;-74
2022/09/16 06:36:37;;;;;;;2.93;1.10;;;26.60;25.20;;;;;;5032125;28;20185;-76
2022/09/16 06:39:05;;;;;;;5.40;1.30;;;27.00;24.30;;;;;;5036871;28;20693;-76
2022/09/16 06:41:34;;;;;;;4.83;0.80;;;27.20;24.30;;;;;;5032349;28;20193;-76
2022/09/16 06:44:01;;;;;;;4.13;0.90;;;26.70;24.80;;;;;;5034219;28;20215;-76
2022/09/16 06:46:29;;;;;;;3.30;0.87;;;26.90;24.50;;;;;;5033081;28;20243;-79
2022/09/16 06:48:58;;;;;;;2.17;0.80;;;27.00;24.70;;;;;;5035015;28;20212;-76
2022/09/16 06:51:27;;;;;;;5.50;1.63;;;26.90;24.80;;;;;;5029323;28;20189;-76
2022/09/16 06:54:00;;;;;;;4.67;1.10;;;26.50;24.60;;;;;;5032106;28;20238;-77
2022/09/16 06:56:27;;;;;;;2.27;0.80;;;26.60;24.80;;;;;;5032827;28;20215;-75
2022/09/16 06:58:56;;;;;;;2.73;0.80;;;26.50;24.70;;;;;;5033501;28;20197;-76
2022/09/16 07:01:26;;;;;;;3.20;0.87;;;26.40;24.90;;;;;;5032804;28;20211;-77
2022/09/16 07:03:56;;;;;;;4.67;0.83;;;26.20;25.10;;;;;;5033583;28;20180;-85
2022/09/16 07:06:27;;;;;;;4.07;0.93;;;25.90;25.40;;;;;;5033361;28;20246;-76
2022/09/16 07:08:54;;;;;;;4.27;0.83;;;25.80;26.00;;;;;;5033418;28;20211;-77
2022/09/16 07:11:23;;;;;;;5.80;1.10;;;25.60;26.10;;;;;;5031718;28;20636;-77
2022/09/16 07:13:51;;;;;;;3.37;1.10;;;25.90;26.30;;;;;;5031460;28;20196;-78
2022/09/16 07:16:21;;;;;;;2.80;0.90;;;26.00;26.10;;;;;;5027895;28;20247;-75
2022/09/16 07:18:56;;;;;;;3.27;0.80;;;25.70;26.50;;;;;;5033149;28;20224;-78
2022/09/16 07:21:47;;;;;;;3.13;0.90;;;25.00;27.40;;;;;;5032683;28;20195;-83
2022/09/16 07:24:23;;;;;;;3.43;0.93;;;24.10;28.00;;;;;;5022154;28;20624;-79
2022/09/16 07:26:50;;;;;;;1.83;0.93;;;23.30;29.00;;;;;;5032523;28;20975;-78
2022/09/16 07:29:19;;;;;;;4.33;1.03;;;23.00;29.20;;;;;;5019035;28;20608;-77
2022/09/16 07:31:47;;;;;;;3.33;1.17;;;22.80;29.40;;;;;;5019858;28;20185;-79
2022/09/16 07:34:14;;;;;;;4.10;1.20;;;22.70;29.60;;;;;;5030765;28;20242;-78
2022/09/16 07:36:47;;;;;;;4.27;1.00;;;22.40;29.80;;;;;;5030068;28;20674;-80
2022/09/16 07:39:16;;;;;;;3.20;1.40;;;22.30;30.60;;;;;;5029976;28;20249;-82
2022/09/16 07:41:47;;;;;;;2.50;1.00;;;22.20;30.80;;;;;;5023877;28;20570;-80
2022/09/16 07:44:17;;;;;;;3.83;1.10;;;22.00;30.70;;;;;;5018620;28;20184;-77
2022/09/16 07:46:45;;;;;;;4.50;1.23;;;21.90;31.10;;;;;;5027114;28;20188;-77
2022/09/16 07:49:14;;;;;;;2.27;0.90;;;21.80;31.50;;;;;;5029393;28;20212;-78
2022/09/16 07:51:41;;;;;;;2.03;1.20;;;21.70;31.80;;;;;;5031045;28;20185;-77
2022/09/16 07:54:15;;;;;;;2.60;1.17;;;21.60;32.10;;;;;;5031454;28;20184;-77
2022/09/16 07:56:43;;;;;;;3.63;1.30;;;21.50;32.60;;;;;;5021831;28;20188;-76
2022/09/16 07:59:17;;;;;;;5.40;1.30;;;21.30;32.80;;;;;;5030217;28;20177;-77
2022/09/16 08:01:45;;;;;;;3.23;1.50;;;21.30;33.30;;;;;;5032565;28;20192;-77
2022/09/16 08:04:12;;;;;;;3.27;1.47;;;21.10;33.60;;;;;;5029862;28;20192;-76
2022/09/16 08:06:40;;;;;;;3.40;1.33;;;21.00;34.30;;;;;;5029187;28;20220;-76
2022/09/16 08:09:07;;;;;;;5.10;1.40;;;20.80;34.90;;;;;;5031087;28;20209;-77
2022/09/16 08:11:35;;;;;;;4.37;1.40;;;20.80;35.00;;;;;;5032471;28;20176;-77
2022/09/16 08:14:02;;;;;;;5.13;1.53;;;20.70;35.20;;;;;;5031141;28;20194;-76
2022/09/16 08:16:29;;;;;;;4.63;1.50;;;20.70;35.50;;;;;;5027494;28;20265;-76
2022/09/16 08:18:58;;;;;;;3.67;1.53;;;20.60;35.60;;;;;;5026847;28;20181;-76
2022/09/16 08:21:28;;;;;;;3.87;1.30;;;20.50;36.10;;;;;;5031859;28;20650;-76
2022/09/16 08:23:56;;;;;;;5.23;1.30;;;20.40;36.60;;;;;;5031798;28;20180;-76
2022/09/16 08:26:24;;;;;;;4.50;1.23;;;20.30;36.70;;;;;;5032696;28;20176;-76
2022/09/16 08:28:52;;;;;;;2.83;1.33;;;20.20;37.10;;;;;;5031621;28;20208;-76
2022/09/16 08:31:20;;;;;;;5.00;1.60;;;20.20;36.80;;;;;;5029629;28;20189;-76
2022/09/16 08:33:48;;;;;;;4.63;1.50;;;20.20;37.20;;;;;;5030555;28;20676;-76
2022/09/16 08:36:16;;;;;;;5.60;1.60;;;20.10;37.10;;;;;;5030660;28;20590;-76
2022/09/16 08:38:45;;;;;;;3.87;1.30;;;20.10;38.10;;;;;;5030600;28;20177;-76
2022/09/16 08:41:39;;;;;;;3.67;1.30;;;20.00;38.30;;;;;;5031288;28;20226;-76
2022/09/16 08:44:15;;;;;;;4.67;1.50;;;19.90;38.70;;;;;;5029986;28;20230;-76
2022/09/16 08:46:59;;;;;;;4.30;1.53;;;19.90;39.10;;;;;;5030123;28;20172;-76
2022/09/16 08:49:40;;;;;;;6.47;1.83;;;19.90;40.20;;;;;;5030308;28;20297;-76
2022/09/16 08:52:18;;;;;;;7.67;1.60;;;19.90;40.00;;;;;;5018362;28;20652;-76
2022/09/16 08:54:50;;;;;;;3.30;1.93;;;19.90;39.70;;;;;;5019852;28;20717;-75
2022/09/16 08:57:27;;;;;;;3.27;1.70;;;19.90;39.70;;;;;;5029180;28;20184;-75
2022/09/16 09:00:16;;;;;;;5.80;2.03;;;20.00;39.60;;;;;;5031281;28;20495;-76
2022/09/16 09:03:12;;;;;;;4.10;2.00;;;20.00;40.00;;;;;;5025890;28;20225;-76
2022/09/16 09:05:59;;;;;;;6.83;2.20;;;19.90;39.60;;;;;;5034754;28;20565;-76
2022/09/16 09:08:35;;;;;;;3.20;2.00;;;19.90;40.30;;;;;;5035681;28;20549;-75
2022/09/16 09:11:12;;;;;;;5.37;1.80;;;19.80;40.70;;;;;;5035686;28;20196;-76
2022/09/16 09:14:03;;;;;;;7.40;2.30;;;19.80;41.10;;;;;;5030682;28;20204;-75
2022/09/16 09:17:02;;;;;;;6.73;1.93;;;19.70;41.20;;;;;;5032519;28;20181;-76
2022/09/16 09:19:57;;;;;;;4.07;2.30;;;19.60;41.80;;;;;;5029371;28;20527;-75
2022/09/16 09:22:46;;;;;;;4.53;2.13;;;19.50;42.30;;;;;;5033384;28;20204;-76
2022/09/16 09:25:26;;;;;;;5.20;2.07;;;19.40;41.70;;;;;;5027658;28;20172;-77
2022/09/16 09:28:11;;;;;;;6.70;2.17;;;19.40;42.20;;;;;;5025735;28;20208;-76
2022/09/16 09:30:52;;;;;;;4.83;2.10;;;19.30;42.10;;;;;;5032584;28;20250;-77
2022/09/16 09:33:34;;;;;;;4.47;1.80;;;19.30;42.10;;;;;;5035545;28;20176;-76
2022/09/16 09:36:07;;;;;;;4.57;2.43;;;19.40;42.00;;;;;;5022954;28;20524;-76
2022/09/16 09:38:49;;;;;;;6.30;1.87;;;19.40;42.50;;;;;;5034913;28;20176;-75
2022/09/16 09:41:31;;;;;;;3.90;1.93;;;19.30;42.50;;;;;;5028055;28;20183;-75
2022/09/16 09:44:26;;;;;;;4.93;2.07;;;19.30;42.60;;;;;;5034479;28;20207;-75
2022/09/16 09:47:00;;;;;;;3.37;1.77;;;19.20;43.50;;;;;;5033388;28;20193;-76
2022/09/16 09:49:45;;;;;;;4.50;1.80;;;19.10;43.30;;;;;;5034151;28;20219;-76
2022/09/16 09:52:40;;;;;;;3.00;1.40;;;19.00;43.50;;;;;;5034607;28;20181;-76
2022/09/16 09:55:19;;;;;;;7.90;2.03;;;19.00;44.10;;;;;;5031138;28;20185;-75
2022/09/16 09:57:59;;;;;;;2.50;1.23;;;18.90;44.30;;;;;;5033702;28;20557;-75
2022/09/16 10:00:27;;;;;;;3.10;1.50;;;18.90;45.00;;;;;;5033666;28;20542;-75
2022/09/16 10:03:04;;;;;;;7.07;1.50;;;18.80;44.80;;;;;;5033986;28;20195;-75
2022/09/16 10:05:32;;;;;;;5.20;1.60;;;18.80;44.90;;;;;;5031588;28;20230;-76
2022/09/16 10:08:24;;;;;;;4.10;1.40;;;18.70;44.70;;;;;;5032005;28;20183;-74
2022/09/16 10:11:02;;;;;;;1.90;1.10;;;18.70;44.30;;;;;;5033968;28;20220;-75
2022/09/16 10:13:30;;;;;;;4.93;1.37;;;18.80;43.90;;;;;;5034774;28;20169;-76
2022/09/16 10:16:17;;;;;;;5.23;1.57;;;18.80;43.80;;;;;;5032820;28;20181;-76
2022/09/16 10:18:44;;;;;;;5.47;1.67;;;18.90;44.10;;;;;;5023661;28;20193;-75
2022/09/16 10:21:16;;;;;;;4.17;1.37;;;18.90;43.90;;;;;;5029979;28;20173;-75
2022/09/16 10:23:57;;;;;;;4.50;1.60;;;18.80;43.80;;;;;;5032179;28;20181;-74
2022/09/16 10:26:25;;;;;;;6.67;1.60;;;18.80;43.90;;;;;;5029224;28;20185;-75
2022/09/16 10:28:59;;;;;;;5.27;1.77;;;18.80;43.80;;;;;;5036465;28;20223;-74
2022/09/16 10:31:35;;;;;;;5.73;1.50;;;18.80;44.40;;;;;;5034316;28;20195;-74
2022/09/16 10:34:05;;;;;;;3.50;1.60;;;18.80;44.20;;;;;;5028817;28;20202;-73
2022/09/16 10:36:34;;;;;;;4.73;1.40;;;18.80;44.10;;;;;;5032634;28;20185;-75
2022/09/16 10:39:04;;;;;;;3.87;1.50;;;18.80;44.40;;;;;;5031377;28;20673;-75
2022/09/16 10:41:45;;;;;;;3.33;1.67;;;18.70;45.20;;;;;;5034128;28;20180;-75
2022/09/16 10:44:25;;;;;;;8.87;2.13;;;18.60;46.30;;;;;;5033812;28;20187;-75
2022/09/16 10:47:09;;;;;;;6.97;1.93;;;18.50;46.60;;;;;;5030028;28;20238;-76
2022/09/16 10:49:43;;;;;;;3.00;1.73;;;18.40;47.00;;;;;;5032160;28;20266;-75
2022/09/16 10:52:17;;;;;;;2.97;1.50;;;18.30;47.40;;;;;;5033846;28;20179;-76
2022/09/16 10:54:45;;;;;;;3.23;1.80;;;18.30;47.60;;;;;;5030668;28;20202;-75
2022/09/16 10:57:23;;;;;;;4.87;1.70;;;18.30;47.10;;;;;;5032584;28;20182;-75
2022/09/16 11:00:24;;;;;;;6.50;1.67;;;18.30;47.40;;;;;;5033933;28;20188;-75
2022/09/16 11:03:09;;;;;;;3.33;1.70;;;18.20;47.60;;;;;;4998962;28;20191;-77
2022/09/16 11:06:23;;;;;;;4.43;1.50;;;18.20;48.10;;;;;;5032916;28;20232;-74
2022/09/16 11:09:05;;;;;;;4.77;1.80;;;18.20;47.20;;;;;;4981908;28;20203;-75
2022/09/16 11:11:38;;;;;;;3.03;1.40;;;18.10;47.70;;;;;;5033267;28;20191;-77
2022/09/16 11:14:14;;;;;;;3.03;1.57;;;18.00;48.10;;;;;;5032598;28;20192;-74
2022/09/16 11:16:41;;;;;;;5.27;1.77;;;18.00;48.40;;;;;;5027602;28;20185;-76
2022/09/16 11:19:27;;;;;;;5.87;1.80;;;17.90;48.60;;;;;;5029454;28;20190;-74
2022/09/16 11:22:39;;;;;;;3.80;1.40;;;17.80;49.20;;;;;;5032192;28;20195;-75
2022/09/16 11:25:37;;;;;;;5.70;1.93;;;17.80;49.00;;;;;;5030740;28;20604;-75
2022/09/16 11:28:32;;;;;;;3.17;1.63;;;17.80;48.90;;;;;;5029071;28;20204;-74
2022/09/16 11:30:59;;;;;;;4.47;1.40;;;17.80;48.30;;;;;;5031264;28;20223;-75
2022/09/16 11:33:41;;;;;;;5.17;1.77;;;17.90;47.60;;;;;;5023784;28;20668;-75
2022/09/16 11:36:23;;;;;;;4.57;1.80;;;17.90;47.10;;;;;;5032741;28;20203;-76
2022/09/16 11:39:02;;;;;;;4.97;1.40;;;17.90;47.20;;;;;;5031068;28;20206;-74
2022/09/16 11:41:57;;;;;;;2.10;1.07;;;18.00;45.60;;;;;;5033333;28;20574;-74
2022/09/16 11:44:36;;;;;;;3.37;1.20;;;18.20;45.10;;;;;;5031427;28;20284;-74
2022/09/16 11:47:24;;;;;;;3.97;1.53;;;18.10;44.40;;;;;;5032942;28;20266;-75
2022/09/16 11:50:25;;;;;;;5.27;1.33;;;18.20;43.80;;;;;;5033199;28;20207;-75
2022/09/16 11:53:13;;;;;;;3.63;1.20;;;18.30;43.40;;;;;;5019329;28;20233;-75
2022/09/16 11:56:24;;;;;;;2.30;1.43;;;18.20;43.80;;;;;;5020257;28;20184;-73
2022/09/16 11:59:25;;;;;;;5.73;1.40;;;18.20;43.60;;;;;;4975105;28;20190;-75
2022/09/16 12:02:02;;;;;;;4.57;1.10;;;18.30;43.40;;;;;;5021713;28;20187;-71
2022/09/16 12:04:42;;;;;;;4.47;1.23;;;18.30;43.10;;;;;;5032163;28;20171;-73
2022/09/16 12:07:44;;;;;;;3.83;1.33;;;18.30;43.00;;;;;;5032219;28;20224;-74
2022/09/16 12:10:33;;;;;;;5.67;1.93;;;18.30;43.40;;;;;;5019811;28;20227;-73
2022/09/16 12:13:39;;;;;;;7.67;1.50;;;18.20;43.80;;;;;;5032748;28;20171;-75
2022/09/16 12:16:17;;;;;;;6.30;1.30;;;18.20;43.70;;;;;;5023605;28;20292;-75
2022/09/16 12:18:54;;;;;;;5.37;1.50;;;18.20;44.10;;;;;;5032426;28;20218;-75
2022/09/16 12:21:24;;;;;;;2.90;1.17;;;18.20;43.80;;;;;;5032619;28;20183;-76
2022/09/16 12:24:09;;;;;;;2.67;1.27;;;18.20;43.50;;;;;;5030280;28;20197;-75
2022/09/16 12:27:14;;;;;;;2.37;1.37;;;18.30;42.90;;;;;;5025862;28;20659;-75
2022/09/16 12:29:47;;;;;;;6.03;1.50;;;18.30;41.90;;;;;;5001749;28;20791;-73
2022/09/16 12:32:38;;;;;;;2.00;1.10;;;18.30;42.10;;;;;;5032283;28;20172;-74
2022/09/16 12:35:16;;;;;;;2.93;1.23;;;18.40;41.70;;;;;;5031858;28;20624;-74
2022/09/16 12:37:49;;;;;;;5.00;1.30;;;18.50;41.40;;;;;;5019627;28;20185;-72
2022/09/16 12:40:27;;;;;;;3.37;1.20;;;18.50;41.40;;;;;;5033649;28;20211;-74
2022/09/16 12:43:07;;;;;;;4.07;1.17;;;18.50;41.60;;;;;;5023573;28;20190;-74
2022/09/16 12:45:54;;;;;;;4.20;1.17;;;18.50;41.40;;;;;;5033974;28;20185;-75
2022/09/16 12:48:55;;;;;;;2.57;1.13;;;18.50;41.40;;;;;;5036084;28;20181;-74
2022/09/16 12:51:51;;;;;;;1.83;1.20;;;18.40;41.40;;;;;;5029169;28;20188;-73
2022/09/16 12:54:44;;;;;;;4.43;1.40;;;18.50;41.60;;;;;;5023986;28;20188;-74
2022/09/16 12:57:39;;;;;;;2.27;1.10;;;18.40;41.70;;;;;;5025375;28;20178;-74
2022/09/16 13:00:26;;;;;;;3.93;1.50;;;18.40;41.90;;;;;;5025914;28;20176;-72
2022/09/16 13:03:20;;;;;;;5.73;1.40;;;18.30;42.00;;;;;;5035701;28;20238;-72
2022/09/16 13:05:50;;;;;;;3.40;1.13;;;18.30;42.30;;;;;;5034166;28;20224;-73
2022/09/16 13:08:30;;;;;;;4.00;1.30;;;18.30;42.60;;;;;;5035712;28;20173;-72
2022/09/16 13:11:04;;;;;;;4.27;1.23;;;18.20;43.00;;;;;;5035665;28;20215;-72
2022/09/16 13:13:45;;;;;;;5.10;1.23;;;18.20;42.70;;;;;;5035154;28;20250;-72
2022/09/16 13:16:12;;;;;;;4.50;1.10;;;18.20;43.10;;;;;;5033803;28;20673;-72
2022/09/16 13:18:49;;;;;;;4.80;1.50;;;18.20;43.40;;;;;;5024123;28;20173;-73
2022/09/16 13:21:26;;;;;;;4.17;1.50;;;18.20;43.40;;;;;;5034604;28;20209;-72
2022/09/16 13:24:14;;;;;;;5.63;1.43;;;18.10;43.50;;;;;;5034801;28;20175;-75
2022/09/16 13:26:44;;;;;;;6.43;1.30;;;18.20;43.50;;;;;;5034524;28;20192;-76
2022/09/16 13:29:33;;;;;;;5.50;1.20;;;18.10;43.70;;;;;;5034297;28;20223;-74
2022/09/16 13:32:00;;;;;;;4.83;1.33;;;18.20;44.00;;;;;;5034911;28;20184;-73
2022/09/16 13:34:39;;;;;;;3.63;1.20;;;18.10;43.90;;;;;;5025419;28;20184;-76
2022/09/16 13:37:15;;;;;;;2.60;1.20;;;18.20;44.00;;;;;;5035393;28;20641;-73